createdAt,value
2018-05-08T00:00:51.573Z,44.97
2018-05-08T00:03:19.821Z,45.37
2018-05-08T00:05:48.066Z,45.50
2018-05-08T00:08:16.295Z,45.47
2018-05-08T00:10:44.555Z,45.30
2018-05-08T00:13:12.783Z,44.47
2018-05-08T00:15:41.769Z,45.07
2018-05-08T00:18:12.015Z,46.17
2018-05-08T00:20:40.248Z,45.10
2018-05-08T00:23:10.567Z,45.90
2018-05-08T00:25:38.995Z,44.90
2018-05-08T00:28:07.977Z,46.27
2018-05-08T00:30:36.246Z,45.23
2018-05-08T00:33:04.496Z,45.87
2018-05-08T00:35:32.708Z,45.10
2018-05-08T00:38:01.006Z,43.80
2018-05-08T00:40:29.316Z,45.03
2018-05-08T00:42:57.578Z,44.40
2018-05-08T00:45:26.327Z,45.20
2018-05-08T00:47:54.565Z,44.77
2018-05-08T00:50:22.777Z,45.43
2018-05-08T00:52:50.985Z,44.93
2018-05-08T00:55:20.211Z,45.30
2018-05-08T00:57:48.487Z,45.07
2018-05-08T01:00:16.724Z,45.57
2018-05-08T01:02:45.936Z,45.60
2018-05-08T01:05:14.169Z,45.37
2018-05-08T01:07:42.394Z,45.27
2018-05-08T01:10:10.633Z,45.03
2018-05-08T01:12:38.848Z,45.73
2018-05-08T01:15:07.101Z,45.27
2018-05-08T01:17:35.321Z,45.10
2018-05-08T01:20:03.573Z,44.87
2018-05-08T01:22:31.853Z,44.57
2018-05-08T01:25:00.121Z,44.93
2018-05-08T01:27:28.626Z,44.97
2018-05-08T01:29:57.728Z,44.27
2018-05-08T01:32:26.721Z,44.70
2018-05-08T01:34:54.968Z,44.67
2018-05-08T01:37:24.129Z,45.23
2018-05-08T01:39:53.200Z,44.90
2018-05-08T01:42:21.522Z,45.37
2018-05-08T01:44:49.802Z,44.97
2018-05-08T01:47:18.262Z,44.40
2018-05-08T01:49:46.789Z,43.27
2018-05-08T01:52:15.921Z,44.10
2018-05-08T01:54:44.930Z,44.20
2018-05-08T01:57:13.186Z,44.87
2018-05-08T01:59:41.429Z,45.00
2018-05-08T02:02:09.650Z,43.83
2018-05-08T02:04:37.858Z,44.03
2018-05-08T02:07:06.114Z,44.90
2018-05-08T02:09:36.191Z,45.40
2018-05-08T02:12:04.447Z,44.47
2018-05-08T02:14:32.711Z,44.07
2018-05-08T02:17:00.924Z,44.57
2018-05-08T02:19:29.977Z,44.67
2018-05-08T02:21:58.193Z,44.77
2018-05-08T02:24:26.506Z,44.30
2018-05-08T02:26:55.527Z,44.53
2018-05-08T02:29:23.762Z,44.57
2018-05-08T02:31:53.101Z,43.90
2018-05-08T02:34:21.317Z,44.83
2018-05-08T02:36:50.024Z,44.17
2018-05-08T02:39:18.263Z,44.40
2018-05-08T02:41:46.525Z,44.33
2018-05-08T02:44:14.917Z,44.60
2018-05-08T02:46:43.144Z,43.37
2018-05-08T02:49:11.361Z,43.97
2018-05-08T02:51:39.593Z,44.10
2018-05-08T02:54:07.810Z,45.70
2018-05-08T02:56:36.803Z,44.87
2018-05-08T02:59:05.886Z,44.83
2018-05-08T03:01:34.094Z,46.57
2018-05-08T03:04:02.315Z,44.20
2018-05-08T03:06:31.458Z,44.23
2018-05-08T03:08:59.692Z,44.90
2018-05-08T03:11:27.905Z,44.60
2018-05-08T03:13:56.153Z,44.10
2018-05-08T03:16:24.996Z,44.00
2018-05-08T03:18:53.222Z,44.33
2018-05-08T03:21:21.445Z,44.30
2018-05-08T03:26:24.171Z,44.63
2018-05-08T03:28:52.400Z,44.23
2018-05-08T03:31:20.622Z,43.43
2018-05-08T03:33:48.832Z,44.23
2018-05-08T03:36:17.076Z,43.23
2018-05-08T03:38:45.294Z,43.90
2018-05-08T03:41:13.562Z,43.87
2018-05-08T03:43:41.786Z,43.70
2018-05-08T03:46:10.022Z,43.70
2018-05-08T03:48:38.240Z,43.50
2018-05-08T03:51:06.508Z,43.70
2018-05-08T03:53:35.529Z,44.47
2018-05-08T03:58:38.222Z,43.90
2018-05-08T04:01:24.101Z,43.70
2018-05-08T04:04:11.023Z,44.13
2018-05-08T04:07:08.832Z,43.27
2018-05-08T04:09:37.076Z,43.73
2018-05-08T04:12:05.320Z,44.70
2018-05-08T04:14:34.300Z,44.23
2018-05-08T04:17:02.519Z,44.60
2018-05-08T04:19:31.410Z,44.23
2018-05-08T04:21:59.659Z,44.80
2018-05-08T04:24:27.862Z,44.53
2018-05-08T04:26:56.121Z,44.90
2018-05-08T04:29:24.348Z,44.97
2018-05-08T04:31:52.579Z,44.63
2018-05-08T04:34:20.796Z,44.90
2018-05-08T04:36:49.015Z,45.10
2018-05-08T04:39:17.225Z,44.83
2018-05-08T04:41:45.463Z,44.57
2018-05-08T04:44:13.760Z,45.70
2018-05-08T04:46:41.974Z,45.57
2018-05-08T04:49:10.229Z,45.93
2018-05-08T04:51:38.452Z,46.30
2018-05-08T04:54:07.447Z,46.37
2018-05-08T04:56:36.442Z,45.23
2018-05-08T04:59:05.490Z,46.57
2018-05-08T05:01:33.916Z,46.03
2018-05-08T05:04:02.983Z,46.73
2018-05-08T05:06:31.237Z,48.03
2018-05-08T05:08:59.461Z,46.33
2018-05-08T05:11:27.717Z,47.10
2018-05-08T05:13:56.101Z,46.80
2018-05-08T05:16:24.317Z,46.50
2018-05-08T05:18:52.567Z,46.83
2018-05-08T05:21:20.822Z,47.10
2018-05-08T05:23:49.057Z,47.70
2018-05-08T05:26:17.357Z,47.90
2018-05-08T05:28:45.568Z,47.23
2018-05-08T05:31:13.793Z,47.17
2018-05-08T05:33:43.022Z,47.33
2018-05-08T05:36:12.098Z,47.40
2018-05-08T05:38:40.297Z,47.30
2018-05-08T05:41:09.145Z,47.17
2018-05-08T05:43:37.406Z,47.37
2018-05-08T05:46:06.477Z,48.07
2018-05-08T05:48:35.475Z,48.80
2018-05-08T05:51:05.116Z,48.77
2018-05-08T05:53:33.536Z,48.73
2018-05-08T05:56:02.795Z,48.23
2018-05-08T05:58:31.051Z,48.97
2018-05-08T06:01:00.901Z,48.60
2018-05-08T06:03:30.113Z,48.63
2018-05-08T06:05:58.366Z,47.73
2018-05-08T06:08:26.602Z,49.57
2018-05-08T06:10:56.158Z,47.00
2018-05-08T06:13:24.371Z,49.40
2018-05-08T06:15:53.508Z,49.47
2018-05-08T06:18:21.744Z,51.60
2018-05-08T06:20:49.958Z,52.50
2018-05-08T06:23:20.052Z,51.83
2018-05-08T06:25:48.354Z,55.00
2018-05-08T06:28:16.962Z,55.97
2018-05-08T06:30:45.185Z,51.13
2018-05-08T06:33:13.443Z,49.10
2018-05-08T06:35:42.086Z,52.13
2018-05-08T06:38:10.309Z,50.73
2018-05-08T06:40:38.629Z,49.10
2018-05-08T06:43:06.850Z,50.50
2018-05-08T06:45:35.092Z,53.63
2018-05-08T06:48:03.331Z,50.03
2018-05-08T06:50:32.318Z,49.90
2018-05-08T06:53:01.312Z,50.40
2018-05-08T06:55:30.322Z,50.57
2018-05-08T06:57:59.423Z,51.40
2018-05-08T07:00:28.845Z,53.17
2018-05-08T07:02:57.967Z,51.20
2018-05-08T07:05:26.206Z,51.77
2018-05-08T07:07:54.429Z,51.23
2018-05-08T07:10:22.681Z,51.90
2018-05-08T07:12:50.905Z,50.33
2018-05-08T07:15:19.132Z,50.90
2018-05-08T07:17:47.365Z,50.57
2018-05-08T07:20:15.587Z,52.40
2018-05-08T07:22:43.851Z,54.27
2018-05-08T07:25:12.151Z,51.93
2018-05-08T07:27:40.392Z,52.53
2018-05-08T07:30:08.621Z,51.83
2018-05-08T07:32:36.913Z,52.73
2018-05-08T07:35:05.959Z,50.30
2018-05-08T07:37:34.208Z,53.23
2018-05-08T07:40:02.437Z,51.23
2018-05-08T07:42:30.691Z,51.63
2018-05-08T07:44:58.914Z,51.80
2018-05-08T07:47:28.460Z,50.70
2018-05-08T07:49:56.678Z,52.60
2018-05-08T07:52:24.957Z,50.73
2018-05-08T07:54:53.207Z,50.20
2018-05-08T07:57:22.188Z,52.63
2018-05-08T07:59:50.401Z,50.80
2018-05-08T08:02:18.631Z,51.27
2018-05-08T08:04:47.093Z,51.63
2018-05-08T08:07:15.656Z,52.30
2018-05-08T08:09:45.109Z,51.57
2018-05-08T08:12:14.010Z,52.07
2018-05-08T08:14:42.264Z,50.33
2018-05-08T08:17:10.470Z,51.57
2018-05-08T08:19:38.641Z,51.27
2018-05-08T08:22:06.823Z,52.70
2018-05-08T08:24:35.049Z,50.30
2018-05-08T08:27:03.233Z,50.07
2018-05-08T08:29:31.446Z,50.40
2018-05-08T08:31:59.731Z,52.00
2018-05-08T08:34:27.950Z,53.67
2018-05-08T08:36:56.119Z,53.93
2018-05-08T08:39:24.328Z,50.83
2018-05-08T08:41:52.501Z,52.83
2018-05-08T08:44:21.336Z,51.77
2018-05-08T08:46:49.573Z,52.93
2018-05-08T08:49:17.809Z,55.27
2018-05-08T08:51:46.017Z,52.83
2018-05-08T08:54:14.211Z,54.27
2018-05-08T08:56:42.398Z,52.63
2018-05-08T08:59:10.587Z,53.60
2018-05-08T09:01:39.562Z,51.53
2018-05-08T09:04:07.854Z,52.30
2018-05-08T09:06:35.987Z,54.73
2018-05-08T09:09:04.263Z,54.30
2018-05-08T09:11:32.515Z,52.60
2018-05-08T09:14:00.849Z,52.77
2018-05-08T09:16:29.048Z,54.53
2018-05-08T09:18:57.233Z,55.33
2018-05-08T09:21:26.182Z,51.77
2018-05-08T09:23:54.437Z,52.33
2018-05-08T09:26:23.020Z,52.33
2018-05-08T09:28:51.216Z,51.70
2018-05-08T09:31:19.434Z,50.07
2018-05-08T09:33:49.328Z,51.23
2018-05-08T09:36:17.518Z,49.07
2018-05-08T09:38:46.503Z,50.27
2018-05-08T09:41:14.720Z,50.27
2018-05-08T09:43:42.916Z,49.40
2018-05-08T09:46:11.104Z,51.80
2018-05-08T09:48:39.314Z,52.27
2018-05-08T09:51:08.246Z,54.13
2018-05-08T09:53:36.440Z,54.50
2018-05-08T09:56:04.656Z,50.83
2018-05-08T09:58:32.842Z,50.97
2018-05-08T10:01:01.113Z,50.07
2018-05-08T10:03:29.249Z,49.63
2018-05-08T10:05:57.438Z,50.10
2018-05-08T10:08:25.639Z,50.00
2018-05-08T10:10:53.840Z,49.70
2018-05-08T10:13:22.033Z,49.83
2018-05-08T10:15:51.159Z,50.80
2018-05-08T10:18:20.879Z,50.93
2018-05-08T10:20:49.071Z,51.90
2018-05-08T10:23:17.285Z,52.10
2018-05-08T10:25:45.482Z,50.17
2018-05-08T10:28:13.666Z,50.40
2018-05-08T10:30:41.870Z,50.90
2018-05-08T10:33:10.041Z,50.37
2018-05-08T10:35:38.225Z,51.20
2018-05-08T10:38:06.436Z,48.60
2018-05-08T10:40:34.642Z,49.13
2018-05-08T10:43:03.591Z,49.77
2018-05-08T10:45:31.797Z,48.73
2018-05-08T10:47:59.992Z,48.20
2018-05-08T10:50:28.178Z,46.40
2018-05-08T10:52:57.058Z,48.93
2018-05-08T10:55:25.250Z,49.43
2018-05-08T10:57:53.511Z,47.97
2018-05-08T11:00:22.473Z,52.53
2018-05-08T11:02:50.723Z,48.43
2018-05-08T11:05:18.923Z,47.80
2018-05-08T11:07:47.126Z,49.97
2018-05-08T11:10:15.310Z,48.63
2018-05-08T11:12:43.493Z,47.77
2018-05-08T11:15:11.697Z,49.23
2018-05-08T11:17:39.889Z,47.07
2018-05-08T11:20:08.096Z,48.10
2018-05-08T11:22:37.068Z,46.50
2018-05-08T11:25:05.980Z,49.33
2018-05-08T11:27:34.190Z,49.17
2018-05-08T11:30:02.405Z,45.93
2018-05-08T11:32:31.700Z,48.80
2018-05-08T11:34:59.972Z,46.53
2018-05-08T11:37:28.742Z,47.27
2018-05-08T11:39:56.939Z,47.00
2018-05-08T11:42:25.130Z,49.87
2018-05-08T11:44:53.342Z,47.33
2018-05-08T11:47:21.515Z,45.30
2018-05-08T11:49:49.742Z,45.83
2018-05-08T11:52:17.938Z,47.07
2018-05-08T11:54:46.912Z,48.00
2018-05-08T11:57:15.085Z,48.37
2018-05-08T11:59:43.544Z,46.97
2018-05-08T12:02:11.735Z,46.93
2018-05-08T12:04:41.126Z,47.27
2018-05-08T12:07:10.125Z,47.13
2018-05-08T12:09:38.323Z,47.47
2018-05-08T12:12:07.601Z,45.97
2018-05-08T12:14:36.168Z,46.83
2018-05-08T12:17:04.372Z,46.67
2018-05-08T12:19:32.573Z,46.00
2018-05-08T12:22:01.891Z,47.80
2018-05-08T12:24:30.829Z,46.30
2018-05-08T12:26:59.806Z,45.30
2018-05-08T12:29:28.110Z,47.00
2018-05-08T12:31:56.296Z,45.80
2018-05-08T12:34:24.509Z,46.80
2018-05-08T12:36:53.119Z,46.00
2018-05-08T12:39:22.185Z,46.23
2018-05-08T12:41:50.440Z,45.30
2018-05-08T12:44:19.418Z,46.07
2018-05-08T12:46:47.787Z,46.23
2018-05-08T12:49:15.966Z,45.77
2018-05-08T12:51:44.209Z,45.27
2018-05-08T12:54:12.390Z,46.13
2018-05-08T12:56:41.317Z,45.67
2018-05-08T12:59:09.526Z,45.90
2018-05-08T13:01:37.697Z,45.90
2018-05-08T13:04:06.775Z,45.67
2018-05-08T13:06:35.990Z,45.43
2018-05-08T13:09:04.809Z,46.87
2018-05-08T13:11:33.033Z,48.40
2018-05-08T13:14:01.229Z,48.10
2018-05-08T13:16:29.442Z,46.53
2018-05-08T13:18:57.635Z,47.17
2018-05-08T13:21:27.014Z,47.40
2018-05-08T13:23:56.846Z,48.53
2018-05-08T13:26:25.369Z,47.70
2018-05-08T13:28:53.655Z,46.53
2018-05-08T13:31:21.888Z,46.10
2018-05-08T13:33:50.110Z,47.80
2018-05-08T13:36:18.342Z,47.33
2018-05-08T13:38:46.543Z,46.80
2018-05-08T13:41:15.502Z,48.20
2018-05-08T13:43:43.792Z,48.57
2018-05-08T13:46:12.029Z,45.77
2018-05-08T13:48:40.262Z,46.50
2018-05-08T13:51:09.237Z,48.97
2018-05-08T13:53:38.252Z,47.43
2018-05-08T13:56:06.520Z,47.70
2018-05-08T13:58:34.760Z,48.37
2018-05-08T14:01:04.021Z,48.30
2018-05-08T14:03:32.312Z,50.23
2018-05-08T14:06:00.526Z,53.70
2018-05-08T14:08:28.696Z,54.77
2018-05-08T14:10:56.873Z,53.37
2018-05-08T14:13:25.080Z,54.27
2018-05-08T14:15:54.042Z,55.00
2018-05-08T14:18:22.233Z,53.17
2018-05-08T14:20:52.127Z,53.87
2018-05-08T14:23:21.162Z,56.37
2018-05-08T14:25:49.553Z,58.07
2018-05-08T14:28:17.756Z,57.70
2018-05-08T14:30:45.954Z,56.40
2018-05-08T14:33:14.138Z,54.13
2018-05-08T14:35:43.190Z,57.37
2018-05-08T14:38:12.759Z,55.13
2018-05-08T14:40:40.992Z,54.83
2018-05-08T14:43:09.262Z,53.27
2018-05-08T14:45:37.460Z,53.07
2018-05-08T14:48:07.354Z,51.43
2018-05-08T14:50:35.565Z,52.77
2018-05-08T14:53:03.929Z,51.73
2018-05-08T14:55:32.140Z,48.97
2018-05-08T14:58:00.359Z,48.70
2018-05-08T15:00:31.035Z,51.33
2018-05-08T15:02:59.573Z,46.73
2018-05-08T15:05:27.767Z,46.43
2018-05-08T15:07:55.996Z,46.27
2018-05-08T15:10:24.202Z,46.07
2018-05-08T15:12:53.148Z,45.60
2018-05-08T15:15:21.502Z,45.30
2018-05-08T15:17:49.697Z,44.87
2018-05-08T15:20:17.912Z,45.17
2018-05-08T15:22:46.497Z,45.60
2018-05-08T15:25:14.681Z,44.90
2018-05-08T15:27:42.904Z,45.07
2018-05-08T15:30:11.318Z,45.17
2018-05-08T15:32:39.506Z,44.67
2018-05-08T15:35:07.701Z,45.17
2018-05-08T15:37:36.887Z,44.80
2018-05-08T15:40:05.153Z,45.10
2018-05-08T15:42:33.404Z,46.40
2018-05-08T15:45:01.580Z,45.17
2018-05-08T15:47:31.182Z,44.60
2018-05-08T15:49:59.403Z,44.13
2018-05-08T15:52:29.115Z,44.83
2018-05-08T15:54:58.280Z,44.57
2018-05-08T15:57:29.002Z,45.20
2018-05-08T15:59:57.168Z,45.43
2018-05-08T16:02:25.839Z,45.10
2018-05-08T16:04:54.052Z,45.13
2018-05-08T16:07:22.244Z,44.70
2018-05-08T16:09:50.441Z,44.80
2018-05-08T16:12:18.642Z,44.30
2018-05-08T16:14:47.606Z,43.90
2018-05-08T16:17:16.049Z,44.33
2018-05-08T16:19:44.372Z,43.77
2018-05-08T16:22:14.625Z,44.00
2018-05-08T16:24:43.697Z,43.47
2018-05-08T16:27:11.902Z,43.37
2018-05-08T16:29:40.111Z,43.10
2018-05-08T16:32:09.021Z,44.07
2018-05-08T16:34:37.941Z,43.77
2018-05-08T16:37:06.123Z,43.37
2018-05-08T16:39:34.406Z,42.43
2018-05-08T16:42:02.589Z,43.00
2018-05-08T16:44:31.252Z,42.67
2018-05-08T16:47:00.205Z,43.20
2018-05-08T16:49:28.472Z,42.90
2018-05-08T16:51:56.905Z,42.60
2018-05-08T16:54:25.154Z,42.43
2018-05-08T16:56:53.392Z,42.70
2018-05-08T16:59:21.596Z,43.07
2018-05-08T17:01:49.797Z,42.37
2018-05-08T17:04:18.013Z,42.43
2018-05-08T17:06:46.231Z,42.47
2018-05-08T17:09:14.466Z,43.50
2018-05-08T17:11:42.682Z,43.17
2018-05-08T17:14:11.530Z,42.83
2018-05-08T17:16:39.809Z,42.20
2018-05-08T17:19:08.915Z,42.40
2018-05-08T17:21:37.820Z,42.27
2018-05-08T17:24:06.042Z,43.07
2018-05-08T17:26:34.246Z,42.97
2018-05-08T17:31:36.980Z,42.27
2018-05-08T17:34:05.190Z,42.10
2018-05-08T17:36:33.375Z,42.13
2018-05-08T17:39:01.591Z,42.97
2018-05-08T17:41:31.604Z,42.67
2018-05-08T17:43:59.826Z,41.83
2018-05-08T17:46:28.058Z,42.90
2018-05-08T17:48:56.318Z,43.00
2018-05-08T17:51:24.559Z,43.20
2018-05-08T17:53:53.106Z,43.30
2018-05-08T17:56:22.450Z,43.27
2018-05-08T17:58:51.993Z,43.50
2018-05-08T18:01:21.614Z,45.17
2018-05-08T18:03:52.084Z,42.77
2018-05-08T18:06:23.309Z,43.17
2018-05-08T18:08:52.152Z,43.30
2018-05-08T18:11:21.506Z,43.63
2018-05-08T18:13:50.998Z,42.67
2018-05-08T18:16:20.054Z,44.33
2018-05-08T18:18:49.605Z,42.60
2018-05-08T18:21:19.970Z,43.23
2018-05-08T18:23:49.587Z,42.83
2018-05-08T18:26:18.523Z,42.63
2018-05-08T18:28:47.786Z,43.40
2018-05-08T18:31:16.241Z,44.63
2018-05-08T18:33:45.904Z,43.27
2018-05-08T18:36:14.681Z,43.50
2018-05-08T18:38:43.934Z,43.00
2018-05-08T18:41:13.419Z,43.13
2018-05-08T18:43:43.294Z,43.23
2018-05-08T18:46:14.742Z,44.03
2018-05-08T18:48:46.355Z,43.23
2018-05-08T18:51:16.676Z,43.10
2018-05-08T18:53:46.745Z,43.17
2018-05-08T18:56:17.401Z,42.50
2018-05-08T18:58:47.949Z,42.40
2018-05-08T19:01:17.872Z,61.23
2018-05-08T19:03:49.945Z,42.27
2018-05-08T19:06:20.203Z,42.67
2018-05-08T19:08:49.019Z,41.87
2018-05-08T19:11:23.110Z,42.03
2018-05-08T19:13:51.816Z,42.17
2018-05-08T19:16:21.750Z,42.80
2018-05-08T19:18:55.921Z,42.63
2018-05-08T19:21:24.816Z,42.73
2018-05-08T19:23:59.299Z,42.03
2018-05-08T19:26:28.056Z,42.73
2018-05-08T19:32:06.777Z,42.67
2018-05-08T19:34:41.287Z,42.70
2018-05-08T19:37:15.703Z,42.50
2018-05-08T19:39:44.610Z,42.67
2018-05-08T19:42:13.296Z,42.90
2018-05-08T19:44:42.657Z,42.33
2018-05-08T19:47:11.215Z,41.87
2018-05-08T19:49:40.038Z,42.67
2018-05-08T19:52:08.483Z,42.93
2018-05-08T19:54:39.454Z,43.20
2018-05-08T19:57:08.300Z,42.80
2018-05-08T19:59:37.365Z,42.37
2018-05-08T20:02:06.290Z,42.17
2018-05-08T20:04:34.969Z,42.73
2018-05-08T20:07:03.935Z,42.83
2018-05-08T20:09:32.647Z,42.70
2018-05-08T20:12:01.433Z,43.63
2018-05-08T20:14:30.200Z,42.83
2018-05-08T20:16:58.677Z,42.70
2018-05-08T20:19:27.098Z,42.67
2018-05-08T20:21:56.049Z,43.20
2018-05-08T20:24:24.823Z,43.10
2018-05-08T20:26:54.734Z,43.60
2018-05-08T20:29:23.388Z,42.47
2018-05-08T20:31:52.571Z,43.10
2018-05-08T20:34:21.074Z,43.00
2018-05-08T20:36:49.509Z,41.97
2018-05-08T20:39:18.321Z,42.80
2018-05-08T20:41:46.910Z,42.70
2018-05-08T20:44:16.548Z,42.13
2018-05-08T20:46:45.558Z,43.27
2018-05-08T20:49:14.185Z,43.83
2018-05-08T20:51:43.079Z,42.57
2018-05-08T20:54:11.847Z,42.07
2018-05-08T20:56:40.508Z,42.80
2018-05-08T20:59:08.710Z,43.90
2018-05-08T21:01:36.945Z,43.97
2018-05-08T21:04:05.117Z,43.97
2018-05-08T21:06:33.341Z,42.30
2018-05-08T21:09:01.544Z,42.80
2018-05-08T21:11:29.734Z,42.77
2018-05-08T21:13:58.849Z,41.93
2018-05-08T21:16:27.066Z,42.20
2018-05-08T21:18:55.321Z,42.23
2018-05-08T21:21:23.545Z,42.73
2018-05-08T21:23:51.725Z,42.57
2018-05-08T21:26:19.912Z,43.20
2018-05-08T21:28:53.604Z,42.53
2018-05-08T21:31:22.614Z,42.77
2018-05-08T21:33:50.829Z,43.00
2018-05-08T21:36:19.070Z,42.47
2018-05-08T21:38:47.259Z,42.60
2018-05-08T21:41:15.460Z,41.87
2018-05-08T21:43:43.664Z,42.60
2018-05-08T21:46:11.865Z,42.77
2018-05-08T21:48:40.878Z,42.63
2018-05-08T21:51:09.083Z,42.80
2018-05-08T21:53:37.279Z,42.53
2018-05-08T21:56:05.488Z,42.77
2018-05-08T21:58:33.703Z,42.70
2018-05-08T22:01:01.930Z,42.40
2018-05-08T22:03:30.146Z,42.23
2018-05-08T22:05:58.345Z,43.73
2018-05-08T22:08:26.529Z,42.70
2018-05-08T22:10:55.475Z,42.03
2018-05-08T22:13:23.700Z,42.53
2018-05-08T22:15:52.778Z,42.33
2018-05-08T22:18:21.039Z,42.63
2018-05-08T22:20:49.268Z,42.47
2018-05-08T22:23:17.484Z,42.83
2018-05-08T22:25:45.709Z,42.87
2018-05-08T22:28:14.689Z,42.90
2018-05-08T22:30:43.664Z,42.13
2018-05-08T22:33:11.880Z,42.17
2018-05-08T22:35:40.081Z,42.13
2018-05-08T22:38:08.303Z,42.10
2018-05-08T22:40:36.482Z,41.77
2018-05-08T22:43:04.680Z,41.77
2018-05-08T22:45:32.887Z,42.20
2018-05-08T22:48:01.074Z,42.10
2018-05-08T22:50:29.277Z,42.10
2018-05-08T22:52:57.560Z,42.17
2018-05-08T22:55:25.697Z,42.27
2018-05-08T22:57:53.941Z,42.03
2018-05-08T23:00:22.252Z,42.43
2018-05-08T23:02:50.432Z,41.27
2018-05-08T23:05:18.659Z,41.97
2018-05-08T23:07:46.831Z,41.97
2018-05-08T23:10:15.008Z,41.90
2018-05-08T23:12:43.218Z,41.67
2018-05-08T23:15:11.396Z,41.87
2018-05-08T23:17:39.582Z,41.63
2018-05-08T23:20:07.808Z,41.07
2018-05-08T23:22:36.003Z,42.57
2018-05-08T23:25:04.229Z,41.60
2018-05-08T23:27:32.457Z,41.70
2018-05-08T23:30:00.834Z,41.73
2018-05-08T23:32:29.028Z,41.90
2018-05-08T23:34:57.238Z,41.83
2018-05-08T23:37:26.196Z,41.73
2018-05-08T23:39:54.409Z,41.93
2018-05-08T23:42:22.634Z,40.73
2018-05-08T23:44:50.818Z,41.10
2018-05-08T23:47:19.013Z,42.33
2018-05-08T23:49:47.221Z,42.30
2018-05-08T23:52:15.426Z,41.47
2018-05-08T23:54:44.338Z,41.00
2018-05-08T23:57:13.332Z,42.10
2018-05-08T23:59:41.539Z,41.10
